メインページ
METAR-TAF:

METAR-TAF

空港 :

高松, 日本

高松空港

緯度: 34-13N, 経度: 134-01E, 海抜: 185m

現時点の気象観測

当レポートは48分前の23:00(UTC)に作成
南/南東の風 5kt
気温 1°C
湿度 69%
気圧 1023 hPa
視程10km以上
高度2500ftの雲はほとんどない
高度13000ftの雲は散在している
高度16000ftの千切れ雲あり

METAR: RJOT 182300Z 15005KT 9999 FEW025 SCT130 BKN160 01/M04 Q1023

時間: 08:48 (23:48 UTC)

予報

当レポートは43分前の23:05(UTC)に作成
予報は19日の 00時(UTC)から 20日の 06時(UTC)まで有効
北東の風 5kt
視程10km以上
高度2500ftの雲はほとんどない
19日の 02時(UTC)から 19日の 04時(UTC)まで徐々に
北西の風 5kt
19日の 08時(UTC)から 19日の 10時(UTC)まで徐々に
南/南東の風 6kt

TAF: RJOT 182305Z 1900/2006 04005KT 9999 FEW025 BECMG 1902/1904 32005KT BECMG 1908/1910 15006KT

4,000以上の空港の気象観測と天気予報(METAR報とTAF報)

利用可能な観測所は地図上に黄色い丸と赤い丸で示す。

丸の上にカーソルを重ねると観測所名を参照できる。

次にクリックすると気象観測と天気予報を参照できる。

マップの切り替え:黒色「×」印の緑ボタンをクリックして拡大、「-」印の緑ボタンをクリックして縮小、緑色の三角印をクリックして隣りの地図に切り替え


METAR-TAF: